Terminal Aerodrome Forecast
Issued by NWS Charleston, WV

Current Version | Previous Version | Text Only | Print | Product List | Glossary Off
Versions: 1 2 3 4 5 6 7 8 9 10 11 12 13 14 15 16 17 18 19 20 21 22 23 24 25 26 27

487
FTUS41 KRLX 182326
TAFPKB
TAF
KPKB 182326Z 1900/1924 VRB04KT P6SM FEW060
     FM190400 00000KT 3SM BR SKC
     FM190600 00000KT 1SM BR SKC
     FM190900 00000KT 1/4SM FG BKN001
     FM191200 00000KT 1SM BR FEW250
     FM191300 VRB03KT 5SM BR FEW250
     FM191700 27004KT P6SM SCT060=

USA.gov is the U.S. government's official web portal to all federal, state and local government web resources and services.